sensor_id;sensor_type;location;lat;lon;timestamp;pressure;altitude;pressure_sealevel;temperature;humidity
35908;BME280;22003;50.320;8.054;2023-02-10T05:00:19;101762.13;;;-2.11;100.00
35908;BME280;22003;50.320;8.054;2023-02-10T05:02:45;101770.81;;;-2.06;100.00
35908;BME280;22003;50.320;8.054;2023-02-10T05:05:11;101760.44;;;-2.07;100.00
35908;BME280;22003;50.320;8.054;2023-02-10T05:07:37;101766.50;;;-2.07;100.00
35908;BME280;22003;50.320;8.054;2023-02-10T05:10:03;101772.59;;;-2.05;100.00
35908;BME280;22003;50.320;8.054;2023-02-10T05:12:28;101764.75;;;-2.08;100.00
35908;BME280;22003;50.320;8.054;2023-02-10T05:14:53;101751.69;;;-2.20;100.00
35908;BME280;22003;50.320;8.054;2023-02-10T05:17:18;101712.66;;;-2.34;100.00
35908;BME280;22003;50.320;8.054;2023-02-10T05:19:44;101771.66;;;-2.12;100.00
35908;BME280;22003;50.320;8.054;2023-02-10T05:22:09;101772.72;;;-1.82;100.00
35908;BME280;22003;50.320;8.054;2023-02-10T05:24:34;101768.28;;;-1.95;100.00
35908;BME280;22003;50.320;8.054;2023-02-10T05:27:00;101753.66;;;-1.81;100.00
35908;BME280;22003;50.320;8.054;2023-02-10T05:29:25;101763.13;;;-1.94;100.00
35908;BME280;22003;50.320;8.054;2023-02-10T05:31:50;101757.03;;;-1.99;100.00
35908;BME280;22003;50.320;8.054;2023-02-10T05:34:16;101749.38;;;-1.71;100.00
35908;BME280;22003;50.320;8.054;2023-02-10T05:36:41;101742.38;;;-1.84;100.00
35908;BME280;22003;50.320;8.054;2023-02-10T05:39:08;101718.16;;;-1.77;100.00
35908;BME280;22003;50.320;8.054;2023-02-10T05:41:50;101728.63;;;-1.51;100.00
35908;BME280;22003;50.320;8.054;2023-02-10T05:44:16;101736.34;;;-1.77;100.00
35908;BME280;22003;50.320;8.054;2023-02-10T05:46:41;101739.75;;;-1.89;100.00
35908;BME280;22003;50.320;8.054;2023-02-10T05:49:07;101743.19;;;-1.95;100.00
35908;BME280;22003;50.320;8.054;2023-02-10T05:51:32;101739.69;;;-2.01;100.00
35908;BME280;22003;50.320;8.054;2023-02-10T05:53:57;101738.75;;;-2.14;100.00
35908;BME280;22003;50.320;8.054;2023-02-10T05:56:22;101739.50;;;-2.30;100.00
35908;BME280;22003;50.320;8.054;2023-02-10T05:58:48;101737.72;;;-2.42;100.00
35908;BME280;22003;50.320;8.054;2023-02-10T06:01:13;101726.25;;;-2.69;100.00
35908;BME280;22003;50.320;8.054;2023-02-10T06:03:38;101737.59;;;-2.57;100.00
35908;BME280;22003;50.320;8.054;2023-02-10T06:06:04;101736.63;;;-2.69;100.00
35908;BME280;22003;50.320;8.054;2023-02-10T06:08:29;101720.06;;;-2.86;100.00
35908;BME280;22003;50.320;8.054;2023-02-10T06:10:54;101712.31;;;-2.81;100.00
35908;BME280;22003;50.320;8.054;2023-02-10T06:13:20;101705.28;;;-2.95;100.00
35908;BME280;22003;50.320;8.054;2023-02-10T06:15:45;101735.66;;;-2.83;100.00
35908;BME280;22003;50.320;8.054;2023-02-10T06:18:10;101733.00;;;-2.92;100.00
35908;BME280;22003;50.320;8.054;2023-02-10T06:20:36;101751.13;;;-2.92;100.00
35908;BME280;22003;50.320;8.054;2023-02-10T06:23:01;101754.44;;;-3.08;100.00
35908;BME280;22003;50.320;8.054;2023-02-10T06:25:26;101750.81;;;-3.23;100.00
35908;BME280;22003;50.320;8.054;2023-02-10T06:27:52;101754.25;;;-3.27;100.00
35908;BME280;22003;50.320;8.054;2023-02-10T06:30:17;101759.38;;;-3.33;100.00
35908;BME280;22003;50.320;8.054;2023-02-10T06:32:42;101755.81;;;-3.41;100.00
35908;BME280;22003;50.320;8.054;2023-02-10T06:35:08;101753.34;;;-3.32;100.00
35908;BME280;22003;50.320;8.054;2023-02-10T06:37:34;101769.94;;;-3.14;100.00
35908;BME280;22003;50.320;8.054;2023-02-10T06:40:02;101774.28;;;-3.12;100.00
35908;BME280;22003;50.320;8.054;2023-02-10T06:42:27;101792.53;;;-3.01;100.00
35908;BME280;22003;50.320;8.054;2023-02-10T06:44:52;101785.31;;;-2.40;100.00
35908;BME280;22003;50.320;8.054;2023-02-10T06:47:18;101748.59;;;-2.87;100.00
35908;BME280;22003;50.320;8.054;2023-02-10T06:49:43;101773.91;;;-2.56;100.00
35908;BME280;22003;50.320;8.054;2023-02-10T06:52:08;101800.88;;;-2.42;100.00
35908;BME280;22003;50.320;8.054;2023-02-10T06:54:33;101781.78;;;-2.50;100.00
35908;BME280;22003;50.320;8.054;2023-02-10T06:56:58;101797.50;;;-2.31;100.00
35908;BME280;22003;50.320;8.054;2023-02-10T06:59:24;101809.69;;;-2.18;100.00
35908;BME280;22003;50.320;8.054;2023-02-10T07:01:49;101774.09;;;-2.34;100.00
35908;BME280;22003;50.320;8.054;2023-02-10T07:04:14;101813.19;;;-2.16;100.00
35908;BME280;22003;50.320;8.054;2023-02-10T07:06:40;101784.50;;;-2.30;100.00
35908;BME280;22003;50.320;8.054;2023-02-10T07:09:06;101819.34;;;-2.03;100.00
35908;BME280;22003;50.320;8.054;2023-02-10T07:11:32;101816.78;;;-1.99;100.00
35908;BME280;22003;50.320;8.054;2023-02-10T07:13:58;101790.75;;;-2.02;100.00
35908;BME280;22003;50.320;8.054;2023-02-10T07:16:23;101809.09;;;-1.82;100.00
35908;BME280;22003;50.320;8.054;2023-02-10T07:18:48;101813.44;;;-1.76;100.00
35908;BME280;22003;50.320;8.054;2023-02-10T07:21:14;101808.34;;;-1.53;100.00
35908;BME280;22003;50.320;8.054;2023-02-10T07:23:39;101829.09;;;-1.64;100.00
35908;BME280;22003;50.320;8.054;2023-02-10T07:26:05;101840.44;;;-1.45;100.00
35908;BME280;22003;50.320;8.054;2023-02-10T07:28:31;101840.44;;;-1.47;100.00
35908;BME280;22003;50.320;8.054;2023-02-10T07:30:56;101846.53;;;-1.40;100.00
35908;BME280;22003;50.320;8.054;2023-02-10T07:33:21;101842.22;;;-1.35;100.00
35908;BME280;22003;50.320;8.054;2023-02-10T07:35:46;101833.56;;;-1.37;100.00
35908;BME280;22003;50.320;8.054;2023-02-10T07:38:12;101846.66;;;-1.16;100.00
35908;BME280;22003;50.320;8.054;2023-02-10T07:40:37;101833.69;;;-1.03;100.00
35908;BME280;22003;50.320;8.054;2023-02-10T07:43:02;101844.13;;;-0.91;100.00
35908;BME280;22003;50.320;8.054;2023-02-10T07:45:28;101827.66;;;-0.89;100.00
35908;BME280;22003;50.320;8.054;2023-02-10T07:47:56;101832.00;;;-0.88;100.00
35908;BME280;22003;50.320;8.054;2023-02-10T07:50:21;101808.56;;;-0.98;100.00
35908;BME280;22003;50.320;8.054;2023-02-10T07:52:47;101834.56;;;-0.89;100.00
35908;BME280;22003;50.320;8.054;2023-02-10T07:55:13;101823.34;;;-0.82;100.00
35908;BME280;22003;50.320;8.054;2023-02-10T07:57:38;101831.13;;;-0.87;100.00
35908;BME280;22003;50.320;8.054;2023-02-10T08:00:05;101850.22;;;-0.72;100.00
35908;BME280;22003;50.320;8.054;2023-02-10T08:02:30;101838.09;;;-0.72;100.00
35908;BME280;22003;50.320;8.054;2023-02-10T08:04:55;101861.53;;;-0.50;100.00
35908;BME280;22003;50.320;8.054;2023-02-10T08:07:21;101825.09;;;-0.47;100.00
35908;BME280;22003;50.320;8.054;2023-02-10T08:09:46;101833.78;;;-0.44;100.00
35908;BME280;22003;50.320;8.054;2023-02-10T08:12:11;101849.41;;;-0.48;100.00
35908;BME280;22003;50.320;8.054;2023-02-10T08:14:36;101828.56;;;-0.53;100.00
35908;BME280;22003;50.320;8.054;2023-02-10T08:17:02;101842.47;;;-0.08;100.00
35908;BME280;22003;50.320;8.054;2023-02-10T08:19:27;101839.84;;;-0.07;100.00
35908;BME280;22003;50.320;8.054;2023-02-10T08:21:53;101840.69;;;0.24;100.00
35908;BME280;22003;50.320;8.054;2023-02-10T08:24:18;101842.34;;;0.58;100.00
35908;BME280;22003;50.320;8.054;2023-02-10T08:26:43;101837.69;;;1.16;100.00
35908;BME280;22003;50.320;8.054;2023-02-10T08:29:09;101836.81;;;1.20;96.21
35908;BME280;22003;50.320;8.054;2023-02-10T08:31:34;101847.09;;;1.46;95.86
35908;BME280;22003;50.320;8.054;2023-02-10T08:34:00;101813.94;;;1.56;92.71
35908;BME280;22003;50.320;8.054;2023-02-10T08:36:25;101830.31;;;1.76;90.37
35908;BME280;22003;50.320;8.054;2023-02-10T08:38:50;101831.31;;;1.62;90.47
35908;BME280;22003;50.320;8.054;2023-02-10T08:41:17;101836.53;;;1.63;91.66
35908;BME280;22003;50.320;8.054;2023-02-10T08:43:42;101847.94;;;1.51;91.30
35908;BME280;22003;50.320;8.054;2023-02-10T08:46:08;101844.25;;;1.75;91.61
35908;BME280;22003;50.320;8.054;2023-02-10T08:48:34;101830.47;;;1.55;91.25
35908;BME280;22003;50.320;8.054;2023-02-10T08:51:00;101846.16;;;1.53;92.76
35908;BME280;22003;50.320;8.054;2023-02-10T08:53:25;101827.13;;;1.39;94.19
35908;BME280;22003;50.320;8.054;2023-02-10T08:56:02;101845.22;;;1.64;95.46
35908;BME280;22003;50.320;8.054;2023-02-10T08:58:28;101839.69;;;1.99;96.02
35908;BME280;22003;50.320;8.054;2023-02-10T09:00:53;101834.75;;;1.68;94.76
35908;BME280;22003;50.320;8.054;2023-02-10T09:03:19;101845.31;;;1.51;95.12
35908;BME280;22003;50.320;8.054;2023-02-10T09:05:44;101833.97;;;1.57;96.28
35908;BME280;22003;50.320;8.054;2023-02-10T09:08:12;101841.84;;;1.49;96.66
35908;BME280;22003;50.320;8.054;2023-02-10T09:10:39;101856.75;;;1.35;95.89
35908;BME280;22003;50.320;8.054;2023-02-10T09:13:04;101859.50;;;1.12;98.52
35908;BME280;22003;50.320;8.054;2023-02-10T09:15:29;101854.13;;;1.40;98.24
35908;BME280;22003;50.320;8.054;2023-02-10T09:17:55;101846.53;;;0.88;98.10
35908;BME280;22003;50.320;8.054;2023-02-10T09:20:20;101858.78;;;0.79;100.00
35908;BME280;22003;50.320;8.054;2023-02-10T09:22:45;101866.56;;;0.90;100.00
35908;BME280;22003;50.320;8.054;2023-02-10T09:25:13;101870.53;;;1.54;100.00
35908;BME280;22003;50.320;8.054;2023-02-10T09:27:38;101861.69;;;1.78;98.21
35908;BME280;22003;50.320;8.054;2023-02-10T09:30:04;101845.28;;;1.54;97.50
35908;BME280;22003;50.320;8.054;2023-02-10T09:32:29;101856.50;;;1.66;97.17
35908;BME280;22003;50.320;8.054;2023-02-10T09:34:54;101848.78;;;1.52;96.91
35908;BME280;22003;50.320;8.054;2023-02-10T09:37:19;101839.19;;;1.57;97.10
35908;BME280;22003;50.320;8.054;2023-02-10T09:39:46;101847.28;;;1.19;97.34
35908;BME280;22003;50.320;8.054;2023-02-10T09:42:26;101854.91;;;1.51;98.79
35908;BME280;22003;50.320;8.054;2023-02-10T09:45:00;101866.78;;;1.92;97.22
35908;BME280;22003;50.320;8.054;2023-02-10T09:47:42;101855.72;;;1.57;96.49
35908;BME280;22003;50.320;8.054;2023-02-10T09:50:32;101860.78;;;1.76;95.91
35908;BME280;22003;50.320;8.054;2023-02-10T09:53:14;101868.56;;;1.85;96.31
35908;BME280;22003;50.320;8.054;2023-02-10T09:55:48;101879.97;;;1.78;96.58
35908;BME280;22003;50.320;8.054;2023-02-10T10:00:44;101886.19;;;1.58;97.31
35908;BME280;22003;50.320;8.054;2023-02-10T10:03:19;101889.41;;;1.96;97.98
35908;BME280;22003;50.320;8.054;2023-02-10T10:06:02;101892.16;;;1.79;97.84
35908;BME280;22003;50.320;8.054;2023-02-10T10:11:01;101900.06;;;1.68;98.75
35908;BME280;22003;50.320;8.054;2023-02-10T10:13:29;101873.59;;;2.09;97.94
35908;BME280;22003;50.320;8.054;2023-02-10T10:16:38;101891.06;;;2.90;93.98
35908;BME280;22003;50.320;8.054;2023-02-10T10:19:35;101883.78;;;3.11;92.41
35908;BME280;22003;50.320;8.054;2023-02-10T10:22:27;101878.22;;;3.37;89.93
35908;BME280;22003;50.320;8.054;2023-02-10T10:25:26;101870.50;;;3.26;90.67
35908;BME280;22003;50.320;8.054;2023-02-10T10:33:49;101888.78;;;3.88;89.55
35908;BME280;22003;50.320;8.054;2023-02-10T10:36:21;101884.13;;;4.05;86.77
35908;BME280;22003;50.320;8.054;2023-02-10T10:38:56;101868.06;;;3.73;88.96
35908;BME280;22003;50.320;8.054;2023-02-10T10:41:26;101886.50;;;3.68;88.24
35908;BME280;22003;50.320;8.054;2023-02-10T10:43:54;101868.66;;;3.88;88.54
35908;BME280;22003;50.320;8.054;2023-02-10T10:48:55;101877.84;;;4.15;88.20
35908;BME280;22003;50.320;8.054;2023-02-10T10:51:21;101864.00;;;4.07;88.13
35908;BME280;22003;50.320;8.054;2023-02-10T10:53:48;101869.47;;;3.93;88.00
35908;BME280;22003;50.320;8.054;2023-02-10T10:59:18;101870.59;;;3.79;90.33
35908;BME280;22003;50.320;8.054;2023-02-10T11:01:46;101867.13;;;3.77;90.60
35908;BME280;22003;50.320;8.054;2023-02-10T11:04:18;101854.75;;;3.85;87.94
35908;BME280;22003;50.320;8.054;2023-02-10T11:06:48;101840.91;;;3.78;87.67
35908;BME280;22003;50.320;8.054;2023-02-10T11:09:52;101868.75;;;3.28;90.58
35908;BME280;22003;50.320;8.054;2023-02-10T11:12:24;101851.44;;;3.15;91.53
35908;BME280;22003;50.320;8.054;2023-02-10T11:14:52;101865.66;;;3.59;90.43
35908;BME280;22003;50.320;8.054;2023-02-10T11:22:27;101851.63;;;3.00;90.93
35908;BME280;22003;50.320;8.054;2023-02-10T11:24:55;101855.31;;;2.86;92.00
35908;BME280;22003;50.320;8.054;2023-02-10T11:27:21;101838.03;;;2.72;92.80
35908;BME280;22003;50.320;8.054;2023-02-10T11:29:49;101848.69;;;3.26;93.01
35908;BME280;22003;50.320;8.054;2023-02-10T11:32:18;101825.22;;;3.74;91.47
35908;BME280;22003;50.320;8.054;2023-02-10T11:34:45;101847.50;;;3.99;90.32
35908;BME280;22003;50.320;8.054;2023-02-10T11:37:17;101837.63;;;4.15;88.02
35908;BME280;22003;50.320;8.054;2023-02-10T11:39:45;101828.72;;;4.23;88.34
35908;BME280;22003;50.320;8.054;2023-02-10T11:42:23;101834.56;;;4.81;85.71
35908;BME280;22003;50.320;8.054;2023-02-10T11:45:00;101837.88;;;4.91;83.86
35908;BME280;22003;50.320;8.054;2023-02-10T11:47:28;101825.25;;;4.66;83.63
35908;BME280;22003;50.320;8.054;2023-02-10T11:49:54;101846.81;;;4.39;84.48
35908;BME280;22003;50.320;8.054;2023-02-10T11:52:21;101837.22;;;4.36;86.63
35908;BME280;22003;50.320;8.054;2023-02-10T11:54:49;101840.16;;;4.19;86.27
35908;BME280;22003;50.320;8.054;2023-02-10T11:57:25;101842.91;;;4.13;88.19
35908;BME280;22003;50.320;8.054;2023-02-10T12:00:16;101823.59;;;4.17;87.19
35908;BME280;22003;50.320;8.054;2023-02-10T12:08:24;101818.34;;;3.68;88.47
35908;BME280;22003;50.320;8.054;2023-02-10T12:11:00;101825.09;;;4.31;88.11
35908;BME280;22003;50.320;8.054;2023-02-10T12:19:18;101799.81;;;5.47;82.09
35908;BME280;22003;50.320;8.054;2023-02-10T12:22:01;101787.34;;;5.90;78.83
35908;BME280;22003;50.320;8.054;2023-02-10T12:24:56;101768.69;;;6.00;77.30
35908;BME280;22003;50.320;8.054;2023-02-10T12:27:42;101776.94;;;6.19;77.40
35908;BME280;22003;50.320;8.054;2023-02-10T12:30:38;101774.91;;;6.60;74.59
35908;BME280;22003;50.320;8.054;2023-02-10T12:36:05;101758.09;;;6.64;73.13
35908;BME280;22003;50.320;8.054;2023-02-10T12:41:42;101760.31;;;6.48;75.13
35908;BME280;22003;50.320;8.054;2023-02-10T12:47:26;101769.38;;;6.40;72.80
35908;BME280;22003;50.320;8.054;2023-02-10T12:50:02;101773.97;;;6.31;73.53
35908;BME280;22003;50.320;8.054;2023-02-10T12:52:41;101745.31;;;6.21;74.27
35908;BME280;22003;50.320;8.054;2023-02-10T12:55:20;101761.94;;;6.82;73.72
35908;BME280;22003;50.320;8.054;2023-02-10T12:57:52;101748.16;;;6.74;72.84
35908;BME280;22003;50.320;8.054;2023-02-10T13:00:27;101742.72;;;6.50;72.41
35908;BME280;22003;50.320;8.054;2023-02-10T13:02:58;101754.16;;;6.79;72.06
35908;BME280;22003;50.320;8.054;2023-02-10T13:05:34;101717.81;;;6.60;71.62
35908;BME280;22003;50.320;8.054;2023-02-10T13:08:02;101718.03;;;6.82;72.11
35908;BME280;22003;50.320;8.054;2023-02-10T13:10:44;101757.38;;;6.59;72.31
35908;BME280;22003;50.320;8.054;2023-02-10T13:13:20;101756.34;;;6.65;71.91
35908;BME280;22003;50.320;8.054;2023-02-10T13:15:51;101755.22;;;6.73;71.79
35908;BME280;22003;50.320;8.054;2023-02-10T13:18:23;101753.66;;;6.66;71.42
35908;BME280;22003;50.320;8.054;2023-02-10T13:23:43;101755.97;;;6.77;71.34
35908;BME280;22003;50.320;8.054;2023-02-10T13:26:17;101760.44;;;6.44;72.27
35908;BME280;22003;50.320;8.054;2023-02-10T13:29:18;101747.63;;;6.63;71.92
35908;BME280;22003;50.320;8.054;2023-02-10T13:34:30;101755.63;;;6.87;71.94
35908;BME280;22003;50.320;8.054;2023-02-10T13:37:16;101750.94;;;6.97;70.99
35908;BME280;22003;50.320;8.054;2023-02-10T13:39:55;101756.56;;;6.86;72.01
35908;BME280;22003;50.320;8.054;2023-02-10T13:42:38;101755.75;;;7.12;71.22
35908;BME280;22003;50.320;8.054;2023-02-10T13:47:42;101753.16;;;7.11;71.46
35908;BME280;22003;50.320;8.054;2023-02-10T13:50:20;101749.63;;;7.12;72.26
35908;BME280;22003;50.320;8.054;2023-02-10T13:52:56;101745.03;;;6.61;72.48
35908;BME280;22003;50.320;8.054;2023-02-10T13:58:17;101738.56;;;6.42;74.31
35908;BME280;22003;50.320;8.054;2023-02-10T14:00:52;101735.81;;;6.46;72.89
35908;BME280;22003;50.320;8.054;2023-02-10T14:03:20;101745.38;;;6.49;73.27
35908;BME280;22003;50.320;8.054;2023-02-10T14:08:30;101740.91;;;6.52;72.88
35908;BME280;22003;50.320;8.054;2023-02-10T14:13:43;101744.00;;;6.04;75.09
35908;BME280;22003;50.320;8.054;2023-02-10T14:18:42;101729.38;;;6.25;74.72
35908;BME280;22003;50.320;8.054;2023-02-10T14:21:13;101724.22;;;6.22;74.25
35908;BME280;22003;50.320;8.054;2023-02-10T14:23:41;101741.38;;;6.35;75.07
35908;BME280;22003;50.320;8.054;2023-02-10T14:26:20;101740.28;;;6.43;74.27
35908;BME280;22003;50.320;8.054;2023-02-10T14:28:48;101733.16;;;6.17;74.81
35908;BME280;22003;50.320;8.054;2023-02-10T14:31:25;101721.50;;;6.25;74.74
35908;BME280;22003;50.320;8.054;2023-02-10T14:34:00;101738.41;;;6.48;74.09
35908;BME280;22003;50.320;8.054;2023-02-10T14:36:27;101729.94;;;6.37;74.52
35908;BME280;22003;50.320;8.054;2023-02-10T14:38:57;101733.66;;;6.29;74.98
35908;BME280;22003;50.320;8.054;2023-02-10T14:41:24;101720.59;;;5.95;76.12
35908;BME280;22003;50.320;8.054;2023-02-10T14:43:50;101726.88;;;6.21;75.27
35908;BME280;22003;50.320;8.054;2023-02-10T14:46:31;101719.03;;;5.87;75.63
35908;BME280;22003;50.320;8.054;2023-02-10T14:49:03;101701.47;;;5.87;75.75
35908;BME280;22003;50.320;8.054;2023-02-10T14:51:39;101715.94;;;5.71;76.79
35908;BME280;22003;50.320;8.054;2023-02-10T14:54:16;101697.22;;;5.50;77.26
35908;BME280;22003;50.320;8.054;2023-02-10T14:56:56;101680.28;;;5.61;77.16
35908;BME280;22003;50.320;8.054;2023-02-10T14:59:24;101705.25;;;5.44;77.49
35908;BME280;22003;50.320;8.054;2023-02-10T15:01:52;101716.00;;;5.35;78.11
35908;BME280;22003;50.320;8.054;2023-02-10T15:04:19;101708.03;;;5.38;78.80
35908;BME280;22003;50.320;8.054;2023-02-10T15:06:47;101709.34;;;5.54;77.56
35908;BME280;22003;50.320;8.054;2023-02-10T15:09:17;101710.22;;;5.55;77.56
35908;BME280;22003;50.320;8.054;2023-02-10T15:11:47;101705.28;;;5.43;77.49
35908;BME280;22003;50.320;8.054;2023-02-10T15:14:33;101706.28;;;5.39;77.90
35908;BME280;22003;50.320;8.054;2023-02-10T15:17:03;101708.91;;;5.39;78.26
35908;BME280;22003;50.320;8.054;2023-02-10T15:19:29;101702.09;;;4.94;79.04
35908;BME280;22003;50.320;8.054;2023-02-10T15:21:55;101693.09;;;4.67;80.41
35908;BME280;22003;50.320;8.054;2023-02-10T15:26:48;101692.34;;;4.62;80.54
35908;BME280;22003;50.320;8.054;2023-02-10T15:29:15;101707.25;;;4.60;80.86
35908;BME280;22003;50.320;8.054;2023-02-10T15:31:42;101717.06;;;4.52;81.34
35908;BME280;22003;50.320;8.054;2023-02-10T15:34:16;101715.38;;;4.48;81.51
35908;BME280;22003;50.320;8.054;2023-02-10T15:36:48;101717.41;;;4.35;81.78
35908;BME280;22003;50.320;8.054;2023-02-10T15:39:23;101717.38;;;4.37;81.87
35908;BME280;22003;50.320;8.054;2023-02-10T15:46:47;101732.22;;;3.94;83.68
35908;BME280;22003;50.320;8.054;2023-02-10T15:49:15;101730.53;;;3.90;84.48
35908;BME280;22003;50.320;8.054;2023-02-10T15:51:58;101735.31;;;3.68;85.34
35908;BME280;22003;50.320;8.054;2023-02-10T15:54:25;101722.13;;;3.71;85.57
35908;BME280;22003;50.320;8.054;2023-02-10T15:59:20;101709.38;;;3.53;85.50
35908;BME280;22003;50.320;8.054;2023-02-10T16:01:49;101703.22;;;3.54;85.37
35908;BME280;22003;50.320;8.054;2023-02-10T16:04:14;101722.84;;;3.32;86.38
35908;BME280;22003;50.320;8.054;2023-02-10T16:06:39;101724.66;;;3.27;86.28
35908;BME280;22003;50.320;8.054;2023-02-10T16:09:05;101709.91;;;3.21;86.22
35908;BME280;22003;50.320;8.054;2023-02-10T16:11:30;101708.69;;;2.89;87.89
35908;BME280;22003;50.320;8.054;2023-02-10T16:13:55;101710.41;;;2.90;87.51
35908;BME280;22003;50.320;8.054;2023-02-10T16:16:21;101720.97;;;2.83;87.96
35908;BME280;22003;50.320;8.054;2023-02-10T16:18:47;101703.69;;;2.71;88.00
35908;BME280;22003;50.320;8.054;2023-02-10T16:21:13;101716.53;;;2.88;88.86
35908;BME280;22003;50.320;8.054;2023-02-10T16:23:38;101707.28;;;2.64;88.32
35908;BME280;22003;50.320;8.054;2023-02-10T16:26:04;101727.38;;;2.63;88.57
35908;BME280;22003;50.320;8.054;2023-02-10T16:28:29;101715.50;;;2.36;88.82
35908;BME280;22003;50.320;8.054;2023-02-10T16:30:54;101692.34;;;2.07;90.33
35908;BME280;22003;50.320;8.054;2023-02-10T16:33:19;101708.59;;;2.31;90.80
35908;BME280;22003;50.320;8.054;2023-02-10T16:35:45;101714.69;;;2.31;90.42
35908;BME280;22003;50.320;8.054;2023-02-10T16:38:10;101715.72;;;2.20;91.46
35908;BME280;22003;50.320;8.054;2023-02-10T16:40:37;101716.72;;;2.11;91.59
35908;BME280;22003;50.320;8.054;2023-02-10T16:43:04;101693.41;;;1.90;91.54
35908;BME280;22003;50.320;8.054;2023-02-10T16:45:31;101715.97;;;1.97;92.48
35908;BME280;22003;50.320;8.054;2023-02-10T16:47:57;101703.19;;;1.72;93.01
35908;BME280;22003;50.320;8.054;2023-02-10T16:50:38;101711.03;;;1.71;93.47
35908;BME280;22003;50.320;8.054;2023-02-10T16:53:04;101702.25;;;1.78;93.88
35908;BME280;22003;50.320;8.054;2023-02-10T16:55:30;101653.75;;;1.52;93.16
35908;BME280;22003;50.320;8.054;2023-02-10T16:57:55;101692.84;;;1.62;93.42
35908;BME280;22003;50.320;8.054;2023-02-10T17:00:22;101711.91;;;1.70;93.57
35908;BME280;22003;50.320;8.054;2023-02-10T17:02:47;101713.00;;;1.44;94.23
35908;BME280;22003;50.320;8.054;2023-02-10T17:05:13;101713.19;;;1.26;94.97
35908;BME280;22003;50.320;8.054;2023-02-10T17:07:39;101724.38;;;1.40;95.53
35908;BME280;22003;50.320;8.054;2023-02-10T17:10:07;101725.31;;;1.33;95.09
35908;BME280;22003;50.320;8.054;2023-02-10T17:12:33;101690.56;;;1.28;95.12
35908;BME280;22003;50.320;8.054;2023-02-10T17:14:58;101725.44;;;1.19;95.65
35908;BME280;22003;50.320;8.054;2023-02-10T17:17:23;101725.44;;;1.18;96.19
35908;BME280;22003;50.320;8.054;2023-02-10T17:19:49;101708.00;;;1.20;95.87
35908;BME280;22003;50.320;8.054;2023-02-10T17:22:14;101700.28;;;1.08;95.79
35908;BME280;22003;50.320;8.054;2023-02-10T17:24:39;101735.88;;;1.16;96.07
35908;BME280;22003;50.320;8.054;2023-02-10T17:27:05;101732.53;;;1.00;97.12
35908;BME280;22003;50.320;8.054;2023-02-10T17:29:30;101742.81;;;1.20;96.48
35908;BME280;22003;50.320;8.054;2023-02-10T17:31:55;101748.91;;;1.19;95.43
35908;BME280;22003;50.320;8.054;2023-02-10T17:34:20;101742.94;;;1.03;95.00
35908;BME280;22003;50.320;8.054;2023-02-10T17:36:46;101745.78;;;0.61;95.21
35908;BME280;22003;50.320;8.054;2023-02-10T17:39:15;101759.84;;;0.32;96.82
35908;BME280;22003;50.320;8.054;2023-02-10T17:41:49;101752.09;;;0.14;98.06
35908;BME280;22003;50.320;8.054;2023-02-10T17:44:16;101756.44;;;0.18;99.66
35908;BME280;22003;50.320;8.054;2023-02-10T17:46:41;101758.19;;;0.11;99.87
35908;BME280;22003;50.320;8.054;2023-02-10T17:49:10;101754.66;;;0.26;100.00
35908;BME280;22003;50.320;8.054;2023-02-10T17:51:35;101748.50;;;0.38;100.00
35908;BME280;22003;50.320;8.054;2023-02-10T17:54:00;101727.63;;;0.45;99.08
35908;BME280;22003;50.320;8.054;2023-02-10T17:56:25;101756.38;;;0.32;99.18
35908;BME280;22003;50.320;8.054;2023-02-10T17:58:51;101750.28;;;0.33;99.37
35908;BME280;22003;50.320;8.054;2023-02-10T18:01:25;101732.97;;;0.13;99.62
35908;BME280;22003;50.320;8.054;2023-02-10T18:03:50;101766.78;;;0.35;100.00
35908;BME280;22003;50.320;8.054;2023-02-10T18:06:17;101774.53;;;0.50;98.65
35908;BME280;22003;50.320;8.054;2023-02-10T18:08:44;101757.28;;;0.15;99.74
35908;BME280;22003;50.320;8.054;2023-02-10T18:11:10;101759.91;;;0.11;99.93
35908;BME280;22003;50.320;8.054;2023-02-10T18:13:35;101779.91;;;0.04;100.00
35908;BME280;22003;50.320;8.054;2023-02-10T18:16:01;101760.75;;;0.23;100.00
35908;BME280;22003;50.320;8.054;2023-02-10T18:18:26;101772.81;;;0.44;100.00
35908;BME280;22003;50.320;8.054;2023-02-10T18:20:51;101760.69;;;0.40;100.00
35908;BME280;22003;50.320;8.054;2023-02-10T18:23:16;101758.94;;;0.45;100.00
35908;BME280;22003;50.320;8.054;2023-02-10T18:25:42;101741.53;;;0.50;100.00
35908;BME280;22003;50.320;8.054;2023-02-10T18:28:09;101755.22;;;0.91;100.00
35908;BME280;22003;50.320;8.054;2023-02-10T18:30:36;101733.69;;;0.52;100.00
35908;BME280;22003;50.320;8.054;2023-02-10T18:33:01;101747.47;;;0.74;100.00
35908;BME280;22003;50.320;8.054;2023-02-10T18:35:29;101725.84;;;0.57;100.00
35908;BME280;22003;50.320;8.054;2023-02-10T18:37:58;101759.66;;;0.72;100.00
35908;BME280;22003;50.320;8.054;2023-02-10T18:40:23;101744.88;;;0.71;100.00
35908;BME280;22003;50.320;8.054;2023-02-10T18:42:48;101741.34;;;0.81;100.00
35908;BME280;22003;50.320;8.054;2023-02-10T18:45:13;101743.06;;;0.82;100.00
35908;BME280;22003;50.320;8.054;2023-02-10T18:47:39;101756.06;;;0.88;100.00
35908;BME280;22003;50.320;8.054;2023-02-10T18:50:04;101741.38;;;0.78;100.00
35908;BME280;22003;50.320;8.054;2023-02-10T18:52:30;101736.06;;;0.92;100.00
35908;BME280;22003;50.320;8.054;2023-02-10T18:54:55;101753.47;;;0.90;100.00
35908;BME280;22003;50.320;8.054;2023-02-10T18:57:20;101753.41;;;0.97;100.00
35908;BME280;22003;50.320;8.054;2023-02-10T18:59:45;101757.88;;;0.82;100.00
35908;BME280;22003;50.320;8.054;2023-02-10T19:02:12;101743.16;;;0.73;100.00
35908;BME280;22003;50.320;8.054;2023-02-10T19:04:37;101732.75;;;0.67;100.00
35908;BME280;22003;50.320;8.054;2023-02-10T19:07:02;101726.69;;;0.59;100.00
35908;BME280;22003;50.320;8.054;2023-02-10T19:09:28;101725.84;;;0.52;100.00
35908;BME280;22003;50.320;8.054;2023-02-10T19:11:53;101706.75;;;0.47;100.00